createdAt,value
2018-01-21T00:02:41.198Z,40.00
2018-01-21T00:07:43.752Z,39.90
2018-01-21T00:12:46.732Z,39.80
2018-01-21T00:17:49.316Z,39.80
2018-01-21T00:22:51.908Z,40.10
2018-01-21T00:27:54.755Z,40.80
2018-01-21T00:32:58.026Z,40.60
2018-01-21T00:38:01.037Z,41.10
2018-01-21T00:43:03.561Z,41.50
2018-01-21T00:48:06.142Z,41.40
2018-01-21T00:53:08.715Z,41.80
2018-01-21T00:58:11.288Z,41.80
2018-01-21T01:03:13.917Z,41.50
2018-01-21T01:08:16.491Z,42.10
2018-01-21T01:13:19.090Z,42.40
2018-01-21T01:18:22.807Z,42.10
2018-01-21T01:23:25.354Z,42.30
2018-01-21T01:28:28.013Z,42.60
2018-01-21T01:33:30.769Z,43.30
2018-01-21T01:38:34.735Z,43.10
2018-01-21T01:43:37.371Z,43.00
2018-01-21T01:48:40.244Z,43.50
2018-01-21T01:53:44.122Z,42.90
2018-01-21T01:58:48.427Z,43.00
2018-01-21T02:03:50.953Z,42.90
2018-01-21T02:08:54.239Z,43.20
2018-01-21T02:13:56.882Z,43.20
2018-01-21T02:18:59.673Z,43.60
2018-01-21T02:24:03.002Z,42.70
2018-01-21T02:29:05.664Z,42.70
2018-01-21T02:34:09.180Z,43.30
2018-01-21T02:39:12.811Z,43.10
2018-01-21T02:44:16.171Z,42.80
2018-01-21T02:49:19.158Z,42.80
2018-01-21T02:54:21.767Z,43.10
2018-01-21T02:59:24.350Z,43.70
2018-01-21T03:04:26.996Z,44.20
2018-01-21T03:09:29.687Z,44.60
2018-01-21T03:14:32.605Z,45.00
2018-01-21T03:19:36.115Z,45.50
2018-01-21T03:24:38.804Z,46.20
2018-01-21T03:29:41.721Z,46.50
2018-01-21T03:34:44.884Z,46.70
2018-01-21T03:39:47.618Z,47.10
2018-01-21T03:44:50.426Z,47.30
2018-01-21T03:49:53.715Z,48.10
2018-01-21T03:54:56.546Z,48.10
2018-01-21T03:59:59.116Z,48.40
2018-01-21T04:05:02.464Z,48.80
2018-01-21T04:10:05.229Z,49.00
2018-01-21T04:15:07.746Z,49.30
2018-01-21T04:20:10.256Z,49.60
2018-01-21T04:25:12.805Z,49.80
2018-01-21T04:30:15.624Z,50.20
2018-01-21T04:35:18.334Z,50.50
2018-01-21T04:40:22.156Z,50.90
2018-01-21T04:45:25.467Z,51.30
2018-01-21T04:50:28.076Z,51.30
2018-01-21T04:55:30.627Z,51.60
2018-01-21T05:00:33.164Z,51.90
2018-01-21T05:05:35.694Z,52.10
2018-01-21T05:10:38.544Z,52.30
2018-01-21T05:15:41.221Z,52.50
2018-01-21T05:20:43.805Z,52.70
2018-01-21T05:25:46.708Z,53.00
2018-01-21T05:30:50.494Z,53.30
2018-01-21T05:35:53.651Z,53.50
2018-01-21T05:40:56.285Z,53.70
2018-01-21T05:45:58.885Z,53.80
2018-01-21T05:51:01.594Z,54.20
2018-01-21T05:56:04.150Z,54.20
2018-01-21T06:01:07.329Z,54.50
2018-01-21T06:06:11.424Z,54.60
2018-01-21T06:11:14.010Z,54.60
2018-01-21T06:16:16.582Z,54.80
2018-01-21T06:21:19.771Z,54.80
2018-01-21T06:26:22.705Z,55.00
2018-01-21T06:31:25.368Z,55.00
2018-01-21T06:36:27.889Z,55.10
2018-01-21T06:41:30.623Z,55.30
2018-01-21T06:46:33.182Z,55.30
2018-01-21T06:51:35.839Z,55.30
2018-01-21T06:56:38.860Z,55.50
2018-01-21T07:01:41.707Z,55.50
2018-01-21T07:06:44.374Z,55.50
2018-01-21T07:11:47.162Z,55.70
2018-01-21T07:16:50.790Z,55.60
2018-01-21T07:21:53.526Z,55.60
2018-01-21T07:26:56.174Z,55.70
2018-01-21T07:31:58.723Z,55.80
2018-01-21T07:37:01.351Z,55.90
2018-01-21T07:42:04.766Z,56.10
2018-01-21T07:47:08.054Z,55.90
2018-01-21T07:52:10.929Z,56.00
2018-01-21T07:57:13.511Z,55.50
2018-01-21T08:02:16.088Z,55.90
2018-01-21T08:07:19.394Z,56.00
2018-01-21T08:12:22.388Z,56.00
2018-01-21T08:17:25.662Z,56.10
2018-01-21T08:22:28.363Z,56.10
2018-01-21T08:27:30.922Z,56.10
2018-01-21T08:32:33.704Z,56.10
2018-01-21T08:37:41.954Z,56.00
2018-01-21T08:42:44.601Z,56.10
2018-01-21T08:47:48.029Z,56.80
2018-01-21T08:52:50.790Z,56.10
2018-01-21T08:57:53.559Z,56.10
2018-01-21T09:02:56.520Z,56.20
2018-01-21T09:07:59.463Z,56.20
2018-01-21T09:13:02.541Z,56.10
2018-01-21T09:18:06.170Z,54.90
2018-01-21T09:23:09.806Z,54.80
2018-01-21T09:28:12.359Z,54.50
2018-01-21T09:33:15.810Z,54.00
2018-01-21T09:38:18.392Z,53.90
2018-01-21T09:43:21.587Z,53.60
2018-01-21T09:48:24.111Z,53.50
2018-01-21T09:53:26.641Z,53.30
2018-01-21T09:58:30.194Z,53.10
2018-01-21T10:03:32.774Z,53.00
2018-01-21T10:08:36.372Z,52.90
2018-01-21T10:13:41.444Z,52.70
2018-01-21T10:18:44.915Z,52.70
2018-01-21T10:23:47.466Z,52.70
2018-01-21T10:28:50.157Z,52.60
2018-01-21T10:33:53.472Z,52.80
2018-01-21T10:38:56.779Z,52.10
2018-01-21T10:43:59.960Z,52.00
2018-01-21T10:49:03.434Z,51.70
2018-01-21T10:54:06.236Z,52.10
2018-01-21T10:59:09.013Z,52.20
2018-01-21T11:04:11.917Z,52.50
2018-01-21T11:09:14.517Z,52.50
2018-01-21T11:14:17.063Z,53.10
2018-01-21T11:19:20.344Z,52.70
2018-01-21T11:24:22.946Z,52.70
2018-01-21T11:29:25.598Z,52.60
2018-01-21T11:34:28.135Z,52.70
2018-01-21T11:39:30.668Z,52.60
2018-01-21T11:44:33.313Z,52.70
2018-01-21T11:49:35.883Z,52.70
2018-01-21T11:54:38.463Z,52.90
2018-01-21T11:59:40.993Z,52.70
2018-01-21T12:04:43.549Z,52.80
2018-01-21T12:09:46.146Z,52.70
2018-01-21T12:14:48.729Z,52.70
2018-01-21T12:19:52.051Z,52.80
2018-01-21T12:24:55.443Z,53.20
2018-01-21T12:29:58.254Z,52.60
2018-01-21T12:35:00.843Z,52.70
2018-01-21T12:40:04.477Z,52.60
2018-01-21T12:45:08.088Z,52.70
2018-01-21T12:50:10.846Z,52.60
2018-01-21T12:55:14.001Z,52.50
2018-01-21T13:00:16.538Z,52.50
2018-01-21T13:05:19.648Z,52.50
2018-01-21T13:10:22.297Z,52.40
2018-01-21T13:15:25.642Z,52.30
2018-01-21T13:20:28.463Z,52.30
2018-01-21T13:25:32.986Z,52.30
2018-01-21T13:30:39.263Z,52.20
2018-01-21T13:35:42.349Z,52.30
2018-01-21T13:40:45.641Z,52.50
2018-01-21T13:45:48.309Z,52.40
2018-01-21T13:50:51.597Z,52.50
2018-01-21T13:55:54.149Z,52.90
2018-01-21T14:00:57.651Z,53.80
2018-01-21T14:06:00.945Z,54.10
2018-01-21T14:11:04.055Z,54.10
2018-01-21T14:16:06.607Z,54.00
2018-01-21T14:21:09.205Z,54.10
2018-01-21T14:26:11.771Z,54.00
2018-01-21T14:31:14.315Z,54.00
2018-01-21T14:36:17.191Z,53.70
2018-01-21T14:41:19.761Z,53.70
2018-01-21T14:46:22.386Z,53.50
2018-01-21T14:51:24.983Z,53.80
2018-01-21T14:56:27.570Z,53.80
2018-01-21T15:01:30.863Z,54.00
2018-01-21T15:06:33.440Z,54.00
2018-01-21T15:11:36.084Z,54.20
2018-01-21T15:16:38.735Z,54.20
2018-01-21T15:21:41.490Z,54.60
2018-01-21T15:26:44.959Z,54.60
2018-01-21T15:31:49.091Z,54.50
2018-01-21T15:36:52.547Z,54.50
2018-01-21T15:41:56.075Z,54.80
2018-01-21T15:46:59.551Z,54.70
2018-01-21T15:52:02.178Z,54.80
2018-01-21T15:57:04.795Z,55.40
2018-01-21T16:02:07.335Z,54.70
2018-01-21T16:07:09.862Z,54.60
2018-01-21T16:12:12.383Z,54.60
2018-01-21T16:17:15.023Z,54.60
2018-01-21T16:22:17.998Z,54.70
2018-01-21T16:27:20.692Z,54.60
2018-01-21T16:32:23.271Z,55.00
2018-01-21T16:37:52.508Z,55.20
2018-01-21T16:42:55.014Z,55.50
2018-01-21T16:47:57.508Z,55.70
2018-01-21T16:53:01.158Z,55.90
2018-01-21T16:58:04.559Z,56.30
2018-01-21T17:03:08.103Z,56.30
2018-01-21T17:08:10.699Z,56.40
2018-01-21T17:13:13.383Z,56.30
2018-01-21T17:18:15.945Z,55.90
2018-01-21T17:23:18.762Z,55.60
2018-01-21T17:28:21.412Z,55.50
2018-01-21T17:33:25.050Z,55.60
2018-01-21T17:38:27.621Z,55.20
2018-01-21T17:43:30.480Z,55.30
2018-01-21T17:48:33.177Z,55.30
2018-01-21T17:53:36.455Z,55.20
2018-01-21T17:58:39.035Z,55.20
2018-01-21T18:03:42.063Z,55.30
2018-01-21T18:08:44.627Z,55.40
2018-01-21T18:13:48.059Z,55.50
2018-01-21T18:18:50.711Z,55.50
2018-01-21T18:23:53.391Z,55.40
2018-01-21T18:28:56.770Z,55.40
2018-01-21T18:33:59.460Z,56.00
2018-01-21T18:39:02.814Z,55.30
2018-01-21T18:44:05.499Z,55.20
2018-01-21T18:49:09.332Z,55.80
2018-01-21T18:54:12.584Z,55.10
2018-01-21T18:59:15.330Z,55.20
2018-01-21T19:04:17.845Z,55.10
2018-01-21T19:09:20.534Z,55.20
2018-01-21T19:14:23.540Z,55.20
2018-01-21T19:19:27.367Z,55.10
2018-01-21T19:24:30.465Z,55.10
2018-01-21T19:29:33.364Z,55.30
2018-01-21T19:34:38.436Z,55.40
2018-01-21T19:39:44.874Z,56.10
2018-01-21T19:44:47.379Z,56.80
2018-01-21T19:49:49.917Z,57.20
2018-01-21T19:54:53.157Z,57.20
2018-01-21T19:59:56.007Z,58.00
2018-01-21T20:04:59.335Z,58.00
2018-01-21T20:10:02.341Z,58.70
2018-01-21T20:15:05.627Z,59.40
2018-01-21T20:20:09.023Z,59.80
2018-01-21T20:25:12.391Z,60.30
2018-01-21T20:30:14.998Z,60.30
2018-01-21T20:35:17.594Z,60.70
2018-01-21T20:40:20.156Z,61.10
2018-01-21T20:45:22.686Z,61.40
2018-01-21T20:50:25.537Z,61.30
2018-01-21T20:55:29.009Z,61.40
2018-01-21T21:00:31.625Z,61.40
2018-01-21T21:05:34.218Z,61.80
2018-01-21T21:10:37.104Z,62.10
2018-01-21T21:15:40.258Z,61.90
2018-01-21T21:20:44.786Z,43.00
2018-01-21T21:25:52.702Z,46.80
2018-01-21T21:30:56.031Z,46.70
2018-01-21T21:35:58.630Z,44.20
2018-01-21T21:41:01.385Z,42.20
2018-01-21T21:46:03.970Z,40.70
2018-01-21T21:51:06.532Z,40.10
2018-01-21T21:56:10.230Z,39.70
2018-01-21T22:01:12.923Z,39.20
2018-01-21T22:06:16.273Z,39.20
2018-01-21T22:11:18.816Z,39.20
2018-01-21T22:16:22.198Z,38.40
2018-01-21T22:21:26.020Z,38.20
2018-01-21T22:26:28.657Z,39.20
2018-01-21T22:31:31.257Z,40.10
2018-01-21T22:36:33.756Z,40.60
2018-01-21T22:41:37.083Z,41.00
2018-01-21T22:46:39.968Z,42.40
2018-01-21T22:51:43.374Z,43.90
2018-01-21T22:56:45.939Z,43.80
2018-01-21T23:01:48.460Z,43.30
2018-01-21T23:06:52.002Z,45.00
2018-01-21T23:11:54.586Z,44.30
2018-01-21T23:16:57.936Z,45.90
2018-01-21T23:22:01.115Z,45.90
2018-01-21T23:27:03.668Z,46.20
2018-01-21T23:32:07.092Z,46.60
2018-01-21T23:37:09.709Z,46.50
2018-01-21T23:42:12.288Z,46.60
2018-01-21T23:47:15.811Z,48.00
2018-01-21T23:52:19.897Z,47.30
2018-01-21T23:57:22.425Z,47.30
